Time;durP1;ratioP1;P1;durP2;ratioP2;P2;SDS_P1;SDS_P2;PMS_P1;PMS_P2;Temp;Humidity;BMP_temperature;BMP_pressure;BME280_temperature;BME280_humidity;BME280_pressure;Samples;Min_cycle;Max_cycle;Signal;HPM_P1;HPM_P2
2022/07/30 00:00:16;;;;;;;7.23;4.27;;;22.20;92.70;;;23.32;54.22;100647.81;5051439;28;20666;-71
2022/07/30 00:02:51;;;;;;;4.17;3.80;;;22.20;92.60;;;23.31;53.71;100642.69;5021290;28;20652;-68
2022/07/30 00:05:19;;;;;;;7.37;4.37;;;22.20;92.20;;;23.32;53.84;100642.47;5021942;28;20754;-69
2022/07/30 00:07:47;;;;;;;4.60;4.27;;;22.20;92.10;;;23.24;53.82;100645.28;5034705;28;20616;-69
2022/07/30 00:10:14;;;;;;;5.57;3.40;;;22.20;92.10;;;23.22;54.06;100647.31;5051428;28;20612;-70
2022/07/30 00:12:41;;;;;;;4.07;3.70;;;22.20;92.20;;;23.17;54.22;100646.25;5045818;28;20756;-68
2022/07/30 00:15:08;;;;;;;7.43;3.70;;;22.10;92.20;;;23.11;54.42;100635.34;5029379;23;20734;-70
2022/07/30 00:17:36;;;;;;;4.43;4.03;;;22.10;92.40;;;23.08;54.40;100646.38;4998027;28;20732;-70
2022/07/30 00:20:05;;;;;;;3.60;3.30;;;22.10;92.50;;;22.99;54.80;100638.72;5034807;28;20632;-70
2022/07/30 00:22:32;;;;;;;3.73;3.43;;;22.00;92.60;;;22.91;55.11;100641.50;5036401;28;21219;-70
2022/07/30 00:24:59;;;;;;;4.00;3.60;;;21.90;92.80;;;22.87;55.06;100638.38;5036700;28;20640;-71
2022/07/30 00:27:26;;;;;;;4.00;3.70;;;21.90;92.90;;;22.82;55.22;100639.97;5040984;28;21220;-70
2022/07/30 00:29:53;;;;;;;4.73;3.80;;;21.90;93.00;;;22.59;55.99;100639.31;5035141;28;20651;-71
2022/07/30 00:32:20;;;;;;;3.70;3.40;;;21.80;93.20;;;22.66;55.63;100635.69;5033613;28;20648;-70
2022/07/30 00:34:47;;;;;;;3.87;3.57;;;21.70;93.30;;;22.57;55.69;100631.50;5032139;28;20696;-71
2022/07/30 00:37:13;;;;;;;4.50;3.90;;;21.70;93.30;;;22.60;55.45;100639.13;5031463;28;20628;-70
2022/07/30 00:39:40;;;;;;;4.00;3.60;;;21.70;93.20;;;22.65;55.08;100628.75;5030360;28;20707;-70
2022/07/30 00:42:07;;;;;;;4.90;3.57;;;21.70;93.20;;;22.71;55.32;100629.81;5029399;28;20643;-71
2022/07/30 00:44:34;;;;;;;6.30;3.83;;;21.70;93.20;;;22.46;55.88;100629.31;5012778;28;20652;-70
2022/07/30 00:47:01;;;;;;;4.50;4.10;;;21.60;93.20;;;22.45;55.84;100632.16;5029939;28;20684;-71
2022/07/30 00:49:29;;;;;;;5.70;3.30;;;21.50;93.50;;;22.38;55.70;100622.25;5029318;28;20613;-70
2022/07/30 00:51:56;;;;;;;5.50;3.47;;;21.50;93.40;;;22.25;55.29;100616.78;5028238;28;20621;-67
2022/07/30 00:54:26;;;;;;;4.83;3.70;;;21.40;93.00;;;22.11;55.75;100619.47;5030968;28;21231;-69
2022/07/30 00:56:53;;;;;;;3.60;3.30;;;21.30;93.10;;;22.10;55.89;100620.50;5031672;28;20633;-70
2022/07/30 00:59:20;;;;;;;3.53;3.23;;;21.20;93.40;;;22.07;55.85;100610.22;5030686;28;20641;-67
2022/07/30 01:01:47;;;;;;;4.80;3.70;;;21.10;93.60;;;21.96;56.44;100608.03;5029665;28;21279;-70
2022/07/30 01:04:14;;;;;;;4.63;3.93;;;21.10;93.80;;;21.95;56.21;100614.34;5029497;28;20645;-68
2022/07/30 01:06:41;;;;;;;3.53;3.10;;;21.00;93.90;;;21.89;56.66;100602.63;5029562;28;20657;-70
2022/07/30 01:09:08;;;;;;;3.73;3.40;;;21.00;94.10;;;21.90;56.34;100598.13;5031157;28;20605;-70
2022/07/30 01:11:38;;;;;;;3.53;3.23;;;20.90;94.20;;;21.95;56.38;100598.41;5029328;28;20720;-68
2022/07/30 01:14:07;;;;;;;5.60;3.73;;;21.00;94.20;;;21.76;56.89;100602.44;5012403;28;20656;-70
2022/07/30 01:16:35;;;;;;;3.47;3.17;;;20.90;94.30;;;21.84;56.39;100612.16;5029911;28;20639;-71
2022/07/30 01:22:29;;;;;;;3.53;3.23;;;20.90;94.10;;;21.81;56.04;100609.81;5009461;28;20706;-71
2022/07/30 01:25:02;;;;;;;4.47;3.60;;;20.90;94.10;;;21.73;56.30;100609.91;5030150;28;20898;-71
2022/07/30 01:27:35;;;;;;;4.17;3.73;;;20.80;94.20;;;21.78;56.37;100612.84;5044788;28;20663;-68
2022/07/30 01:30:05;;;;;;;4.43;4.03;;;20.80;94.40;;;21.68;56.63;100607.81;5049071;28;20600;-71
2022/07/30 01:32:36;;;;;;;3.93;3.47;;;20.80;94.70;;;21.58;57.05;100613.41;5023797;28;21027;-70
2022/07/30 01:35:05;;;;;;;5.10;3.90;;;20.70;94.70;;;21.62;57.31;100612.03;5025567;28;20659;-70
2022/07/30 01:37:33;;;;;;;6.73;3.57;;;20.70;94.90;;;21.57;57.27;100609.06;5031739;28;21014;-71
2022/07/30 01:40:02;;;;;;;5.00;4.03;;;20.70;94.90;;;21.66;56.62;100614.31;5016654;28;20703;-70
2022/07/30 01:42:29;;;;;;;4.10;3.30;;;20.70;94.80;;;21.54;56.89;100613.94;5015798;28;20735;-71
2022/07/30 01:44:58;;;;;;;4.33;3.43;;;20.60;94.80;;;21.55;56.61;100603.13;5033432;28;20675;-71
2022/07/30 01:47:27;;;;;;;3.70;3.27;;;20.60;94.70;;;21.44;56.36;100611.56;5015362;28;21248;-70
2022/07/30 01:49:55;;;;;;;4.13;3.73;;;20.60;94.40;;;21.42;56.04;100608.22;5015841;28;20647;-70
2022/07/30 01:52:24;;;;;;;3.53;3.23;;;20.60;94.00;;;21.57;55.45;100617.03;5015792;28;20612;-70
2022/07/30 01:54:53;;;;;;;4.23;3.40;;;20.60;94.10;;;21.57;55.51;100616.25;5034513;28;20644;-70
2022/07/30 01:57:22;;;;;;;3.67;3.37;;;20.60;93.90;;;21.48;55.47;100614.66;5015410;28;21168;-69
2022/07/30 01:59:53;;;;;;;3.07;2.87;;;20.60;93.70;;;21.40;54.96;100618.19;5034793;28;20635;-71
2022/07/30 02:02:20;;;;;;;3.60;3.30;;;20.50;93.40;;;21.38;55.13;100620.22;5017249;28;20621;-70
2022/07/30 02:04:47;;;;;;;3.30;3.00;;;20.50;93.20;;;21.45;54.82;100625.63;5032927;28;20659;-70
2022/07/30 02:07:44;;;;;;;3.50;3.10;;;20.50;93.40;;;21.37;55.41;100623.06;5033897;28;20668;-70
2022/07/30 02:10:18;;;;;;;4.70;3.60;;;20.50;93.60;;;21.32;56.19;100634.22;5032814;28;20640;-71
2022/07/30 02:12:51;;;;;;;5.20;3.43;;;20.40;94.00;;;21.44;55.75;100627.47;5033640;28;20599;-71
2022/07/30 02:16:02;;;;;;;5.17;3.57;;;20.50;94.20;;;21.47;56.05;100642.19;5015276;28;20671;-72
2022/07/30 02:19:12;;;;;;;5.43;3.67;;;20.50;94.30;;;21.49;56.00;100640.19;5016542;28;20616;-65
2022/07/30 02:21:47;;;;;;;6.80;3.40;;;20.40;94.40;;;21.41;55.82;100648.22;5015216;28;20714;-71
2022/07/30 02:24:27;;;;;;;3.30;3.00;;;20.50;94.40;;;21.37;56.29;100652.25;5016559;28;21208;-71
2022/07/30 02:27:02;;;;;;;7.50;3.37;;;20.40;94.50;;;21.35;55.87;100649.78;5024040;28;21261;-69
2022/07/30 02:29:33;;;;;;;4.60;3.43;;;20.40;94.50;;;21.30;56.29;100648.66;5036270;28;20604;-71
2022/07/30 02:32:08;;;;;;;3.10;2.90;;;20.30;94.50;;;21.21;56.63;100653.19;5028580;28;20620;-70
2022/07/30 02:34:38;;;;;;;3.80;3.50;;;20.30;94.60;;;21.23;56.62;100661.81;5032337;28;20625;-72
2022/07/30 02:37:07;;;;;;;4.33;3.60;;;20.30;94.90;;;21.24;56.47;100663.47;5016812;28;20608;-72
2022/07/30 02:39:36;;;;;;;4.97;3.43;;;20.30;95.00;;;21.26;57.04;100650.84;5014272;28;20612;-72
2022/07/30 02:42:05;;;;;;;3.00;2.80;;;20.30;95.20;;;21.18;56.73;100656.22;5015460;28;20615;-72
2022/07/30 02:44:34;;;;;;;3.23;2.93;;;20.30;95.10;;;21.19;56.68;100654.41;5013634;28;20649;-72
2022/07/30 02:47:02;;;;;;;4.07;3.37;;;20.20;95.20;;;21.21;56.86;100655.06;5029824;28;20768;-71
2022/07/30 02:49:34;;;;;;;4.30;3.30;;;20.20;95.20;;;21.05;56.87;100657.81;5032787;28;20687;-67
2022/07/30 02:52:02;;;;;;;3.50;3.20;;;20.20;95.10;;;20.95;57.67;100660.69;5014872;28;20613;-68
2022/07/30 02:54:31;;;;;;;6.07;2.97;;;20.10;95.30;;;20.87;57.51;100664.19;5012862;28;20640;-72
2022/07/30 02:56:59;;;;;;;4.07;3.67;;;20.00;95.50;;;20.70;57.51;100669.78;5015521;28;21000;-72
2022/07/30 02:59:29;;;;;;;8.97;3.83;;;19.90;95.40;;;20.82;57.31;100673.69;5031126;28;20647;-72
2022/07/30 03:01:57;;;;;;;4.83;3.53;;;19.90;95.40;;;20.66;57.80;100669.31;5014813;28;21014;-73
2022/07/30 03:04:25;;;;;;;6.20;3.67;;;19.90;95.60;;;20.80;56.97;100671.22;5013661;28;20667;-70
2022/07/30 03:06:54;;;;;;;6.20;4.73;;;19.90;95.70;;;20.83;56.69;100675.34;5015890;28;20641;-69
2022/07/30 03:09:22;;;;;;;11.00;4.57;;;19.90;95.50;;;20.91;56.83;100664.69;5013809;28;20619;-68
2022/07/30 03:11:51;;;;;;;9.17;4.50;;;19.90;95.40;;;20.92;56.42;100668.97;5016086;28;20608;-69
2022/07/30 03:14:19;;;;;;;5.67;4.40;;;19.90;95.30;;;20.98;56.36;100678.88;5032608;28;20663;-69
2022/07/30 03:16:53;;;;;;;7.27;4.67;;;19.90;95.30;;;20.97;56.20;100666.63;5014823;28;20633;-69
2022/07/30 03:19:22;;;;;;;5.03;4.53;;;19.90;95.30;;;21.00;56.33;100666.28;5032032;28;20715;-69
2022/07/30 03:21:52;;;;;;;6.67;4.97;;;20.00;95.30;;;21.02;55.90;100674.88;5014255;28;20629;-68
2022/07/30 03:24:22;;;;;;;6.67;4.70;;;20.00;95.20;;;21.04;56.33;100678.22;5015252;28;20631;-69
2022/07/30 03:26:53;;;;;;;6.30;5.23;;;20.00;95.20;;;21.05;55.94;100679.88;5022926;28;20652;-68
2022/07/30 03:29:23;;;;;;;6.93;5.10;;;20.00;95.30;;;20.99;56.53;100677.91;5035317;28;20614;-68
2022/07/30 03:31:51;;;;;;;6.73;4.47;;;20.00;95.40;;;20.95;56.47;100678.41;5009341;28;20643;-71
2022/07/30 03:34:20;;;;;;;6.10;5.03;;;19.90;95.30;;;20.92;56.83;100679.59;5026516;28;20695;-69
2022/07/30 03:36:51;;;;;;;8.37;5.43;;;19.90;95.40;;;20.91;56.85;100688.56;5013983;28;20681;-72
2022/07/30 03:39:19;;;;;;;6.80;5.50;;;20.00;95.50;;;20.95;56.63;100681.91;5013704;28;20628;-71
2022/07/30 03:41:47;;;;;;;9.83;5.80;;;19.90;95.50;;;20.96;56.66;100680.06;5013809;28;20997;-69
2022/07/30 03:44:15;;;;;;;7.57;5.60;;;19.90;95.50;;;20.99;56.50;100685.84;5031255;28;20649;-71
2022/07/30 03:46:43;;;;;;;10.80;5.07;;;20.00;95.50;;;20.95;56.66;100686.38;5020623;28;20693;-71
2022/07/30 03:49:11;;;;;;;9.47;5.50;;;19.90;95.60;;;20.91;56.75;100690.38;4995654;28;20617;-70
2022/07/30 03:51:38;;;;;;;8.17;4.90;;;19.90;95.70;;;20.87;56.93;100688.06;5023437;28;20690;-72
2022/07/30 03:54:08;;;;;;;8.17;5.00;;;19.90;95.80;;;20.82;57.36;100689.59;5031196;28;20633;-71
2022/07/30 03:56:40;;;;;;;10.13;6.07;;;19.80;95.90;;;20.93;56.92;100699.81;5014082;28;20633;-71
2022/07/30 03:59:08;;;;;;;7.17;5.10;;;19.90;95.80;;;20.92;57.01;100697.31;5014346;28;21233;-71
2022/07/30 04:01:35;;;;;;;9.40;4.97;;;19.90;95.90;;;20.89;57.09;100701.19;5013150;28;21082;-68
2022/07/30 04:04:10;;;;;;;11.13;5.90;;;19.90;95.90;;;20.94;57.00;100704.13;5014633;28;20637;-70
2022/07/30 04:06:39;;;;;;;8.20;5.40;;;19.90;95.80;;;20.98;56.45;100699.28;5029664;28;21020;-71
2022/07/30 04:09:08;;;;;;;6.50;5.07;;;19.90;95.90;;;21.00;56.65;100703.41;5012655;28;20629;-71
2022/07/30 04:11:36;;;;;;;6.63;4.97;;;19.90;95.80;;;21.05;56.42;100705.56;5012181;28;21192;-72
2022/07/30 04:14:08;;;;;;;6.73;5.33;;;19.90;95.80;;;21.04;56.49;100707.38;5030717;28;21065;-72
2022/07/30 04:16:45;;;;;;;10.87;5.43;;;20.00;95.90;;;21.15;56.64;100707.00;5031195;28;21016;-71
2022/07/30 04:19:28;;;;;;;6.40;5.73;;;20.00;96.00;;;21.29;56.23;100716.03;5031537;28;20628;-71
2022/07/30 04:21:57;;;;;;;6.50;5.27;;;20.10;95.80;;;21.40;55.55;100715.63;5031495;28;20648;-71
2022/07/30 04:24:26;;;;;;;11.30;5.77;;;20.30;95.50;;;21.49;55.47;100718.00;5031473;28;20661;-67
2022/07/30 04:26:53;;;;;;;6.03;5.30;;;20.30;95.30;;;21.69;55.16;100725.47;5017709;28;20751;-70
2022/07/30 04:29:20;;;;;;;7.20;5.10;;;20.50;95.10;;;21.77;54.74;100720.91;5049913;28;20623;-71
2022/07/30 04:31:54;;;;;;;8.20;5.33;;;20.60;94.80;;;21.93;54.25;100722.63;5032305;28;20644;-71
2022/07/30 04:34:21;;;;;;;6.40;5.17;;;20.70;94.50;;;22.08;53.94;100731.44;5013792;28;20640;-72
2022/07/30 04:36:48;;;;;;;7.77;5.83;;;20.90;94.30;;;22.27;53.26;100731.75;5028370;28;20637;-71
2022/07/30 04:39:15;;;;;;;9.77;5.47;;;21.10;93.80;;;22.44;53.29;100734.19;5015813;28;20660;-71
2022/07/30 04:41:42;;;;;;;8.50;5.27;;;21.20;93.60;;;22.56;52.93;100744.19;5031482;28;20619;-71
2022/07/30 04:44:17;;;;;;;5.83;5.03;;;21.40;93.40;;;22.76;52.58;100742.66;5030937;28;20639;-71
2022/07/30 04:46:45;;;;;;;8.57;5.07;;;21.50;93.10;;;22.98;51.65;100746.97;5009073;28;20689;-71
2022/07/30 04:49:15;;;;;;;6.93;5.73;;;21.70;92.60;;;23.08;51.57;100746.69;5011514;28;21235;-70
2022/07/30 04:51:44;;;;;;;5.90;4.73;;;21.90;92.30;;;23.31;50.97;100754.50;5012060;28;21075;-71
2022/07/30 04:54:13;;;;;;;8.03;5.67;;;22.10;91.70;;;23.40;50.19;100751.56;5011553;28;20656;-71
2022/07/30 04:56:45;;;;;;;7.47;5.40;;;22.20;91.40;;;23.59;49.96;100750.09;5012946;28;20625;-70
2022/07/30 04:59:27;;;;;;;6.23;5.07;;;22.30;91.10;;;23.84;49.40;100751.31;5013211;28;21204;-71
2022/07/30 05:01:57;;;;;;;9.20;5.53;;;22.60;90.80;;;24.08;48.71;100756.25;5012885;28;20651;-70
2022/07/30 05:04:27;;;;;;;7.87;5.13;;;22.70;90.20;;;24.11;48.99;100757.69;5025679;28;20656;-67
2022/07/30 05:06:55;;;;;;;4.90;4.40;;;22.90;90.00;;;23.99;49.13;100754.72;5010818;28;21275;-71
2022/07/30 05:09:23;;;;;;;5.90;5.00;;;22.80;89.60;;;23.99;48.96;100761.88;5029767;28;21287;-70
2022/07/30 05:11:52;;;;;;;5.60;4.50;;;22.80;89.60;;;24.08;48.67;100761.59;5029841;28;21187;-71
2022/07/30 05:14:20;;;;;;;5.47;4.50;;;22.80;89.50;;;24.44;48.28;100762.25;5012162;28;20704;-72
2022/07/30 05:16:47;;;;;;;6.27;4.80;;;23.10;89.10;;;24.73;47.14;100770.97;5012457;28;20732;-72
2022/07/30 05:19:15;;;;;;;9.00;4.90;;;23.30;88.30;;;24.95;46.87;100762.72;5029194;28;20613;-71
2022/07/30 05:21:42;;;;;;;13.10;5.30;;;23.60;87.20;;;25.13;46.11;100767.50;5013052;28;20639;-71
2022/07/30 05:24:09;;;;;;;7.37;5.13;;;23.80;86.40;;;25.35;45.95;100771.63;5012270;28;21015;-71
2022/07/30 05:26:36;;;;;;;7.57;4.93;;;23.90;85.60;;;25.54;45.41;100770.03;5030631;28;21204;-71
2022/07/30 05:29:04;;;;;;;12.10;4.97;;;24.10;84.70;;;25.56;45.34;100776.84;5051051;28;20619;-71
2022/07/30 05:31:34;;;;;;;6.80;5.10;;;24.30;83.70;;;25.67;44.92;100773.56;5027655;28;20636;-66
2022/07/30 05:34:04;;;;;;;6.07;4.60;;;24.40;83.70;;;25.88;44.42;100773.34;5030422;28;20660;-71
2022/07/30 05:36:32;;;;;;;8.03;5.17;;;24.60;83.40;;;26.14;44.50;100778.72;5030067;28;21378;-70
2022/07/30 05:38:59;;;;;;;7.47;5.07;;;24.80;83.00;;;26.47;43.92;100772.50;5030864;28;20620;-71
2022/07/30 05:41:26;;;;;;;7.50;4.43;;;25.00;81.90;;;26.73;42.95;100777.78;5012997;28;20628;-71
2022/07/30 05:43:59;;;;;;;6.70;4.63;;;25.30;80.90;;;26.70;43.10;100779.00;5030435;28;20637;-70
2022/07/30 05:46:28;;;;;;;12.10;4.13;;;25.40;80.60;;;26.46;43.91;100774.34;5029699;28;20655;-67
2022/07/30 05:48:55;;;;;;;6.40;4.90;;;25.30;80.40;;;26.81;43.11;100774.88;5029309;28;20618;-71
2022/07/30 05:51:22;;;;;;;8.27;4.80;;;25.50;80.20;;;27.22;42.26;100777.13;5028629;28;20625;-72
2022/07/30 05:53:49;;;;;;;5.43;4.93;;;25.80;79.50;;;27.58;41.44;100780.84;5030105;28;20640;-71
2022/07/30 05:56:16;;;;;;;10.67;5.10;;;26.10;78.80;;;28.07;40.35;100776.53;5029525;28;20632;-72
2022/07/30 05:58:43;;;;;;;8.60;5.47;;;26.40;77.60;;;28.50;39.37;100776.50;5029389;28;20994;-72
2022/07/30 06:01:10;;;;;;;7.90;5.37;;;26.80;76.50;;;28.80;38.61;100780.13;5029490;28;21004;-71
2022/07/30 06:03:38;;;;;;;7.20;5.10;;;27.10;75.20;;;29.29;38.09;100785.28;5030430;28;20728;-71
2022/07/30 06:06:06;;;;;;;6.30;4.40;;;27.40;74.30;;;29.82;36.76;100782.63;5029884;28;20736;-71
2022/07/30 06:08:34;;;;;;;8.73;5.10;;;27.80;73.40;;;30.52;35.63;100788.84;5030660;28;20686;-71
2022/07/30 06:11:02;;;;;;;5.63;4.90;;;28.30;72.20;;;31.24;34.67;100798.97;5024666;28;20621;-70
2022/07/30 06:13:29;;;;;;;4.73;4.30;;;28.90;70.50;;;31.77;33.69;100801.28;5029050;28;20609;-72
2022/07/30 06:15:56;;;;;;;8.20;4.87;;;29.30;68.90;;;32.27;32.80;100798.56;5030848;28;20782;-72
2022/07/30 06:18:24;;;;;;;7.70;5.10;;;29.70;67.80;;;32.91;32.04;100805.13;5027955;28;21333;-72
2022/07/30 06:20:55;;;;;;;5.50;4.87;;;30.10;66.60;;;33.57;30.45;100801.25;5030008;28;20736;-71
2022/07/30 06:23:22;;;;;;;10.50;5.10;;;30.60;66.10;;;34.33;29.22;100806.19;5032853;28;20648;-73
2022/07/30 06:25:50;;;;;;;4.80;4.40;;;31.20;63.60;;;35.14;28.22;100803.06;5015728;28;21219;-71
2022/07/30 06:28:18;;;;;;;5.00;4.50;;;31.80;62.20;;;35.86;27.28;100809.94;5030690;28;20685;-72
2022/07/30 06:31:06;;;;;;;5.43;4.40;;;32.50;60.70;;;36.54;26.59;100810.44;5038203;28;20812;-73
2022/07/30 06:33:33;;;;;;;5.33;4.83;;;33.10;59.20;;;37.32;25.89;100805.97;5015127;28;20735;-72
2022/07/30 06:36:00;;;;;;;6.63;4.60;;;33.60;58.30;;;38.06;24.82;100811.94;5031733;28;20633;-69
2022/07/30 06:38:27;;;;;;;5.17;4.50;;;34.00;57.30;;;38.40;24.44;100817.31;5033106;28;20621;-73
2022/07/30 06:40:55;;;;;;;5.07;4.67;;;34.20;56.20;;;39.01;23.34;100813.88;5032435;28;20635;-73
2022/07/30 06:43:31;;;;;;;5.80;4.60;;;34.60;55.80;;;39.22;23.23;100817.97;5032526;28;20627;-72
2022/07/30 06:45:58;;;;;;;6.43;5.00;;;34.90;54.60;;;38.23;24.13;100821.59;5026449;28;20636;-71
2022/07/30 06:48:25;;;;;;;5.50;5.00;;;34.70;53.80;;;39.32;22.85;100821.34;5027321;28;20663;-72
2022/07/30 06:50:52;;;;;;;4.43;4.13;;;34.90;54.10;;;39.98;22.32;100823.88;5029716;28;20633;-70
2022/07/30 06:53:19;;;;;;;5.60;5.03;;;35.40;53.50;;;41.00;21.66;100834.44;5032962;28;21106;-71
2022/07/30 06:55:46;;;;;;;5.37;4.87;;;36.00;52.90;;;41.45;20.88;100827.16;5031862;28;20658;-71
2022/07/30 06:58:13;;;;;;;5.63;4.50;;;36.40;51.90;;;41.95;20.60;100830.59;5015117;28;20617;-71
2022/07/30 07:00:41;;;;;;;5.13;4.33;;;36.80;51.30;;;42.41;19.94;100828.22;5031854;28;20642;-71
2022/07/30 07:03:08;;;;;;;6.57;4.80;;;37.20;50.60;;;43.10;19.35;100829.25;5015667;28;20621;-71
2022/07/30 07:05:37;;;;;;;5.27;4.77;;;37.60;49.90;;;43.86;18.44;100831.19;5029378;28;21031;-71
2022/07/30 07:08:04;;;;;;;5.80;5.30;;;38.20;50.00;;;44.17;18.47;100835.66;5031469;28;21263;-72
2022/07/30 07:10:31;;;;;;;4.80;4.40;;;38.70;48.20;;;44.45;18.05;100836.84;5030848;28;20672;-74
2022/07/30 07:12:59;;;;;;;5.40;4.57;;;38.90;47.40;;;44.36;17.95;100833.31;5032550;28;20703;-71
2022/07/30 07:15:26;;;;;;;5.93;4.67;;;39.00;47.00;;;44.59;17.84;100832.72;5031840;28;20670;-67
2022/07/30 07:18:05;;;;;;;7.90;4.47;;;39.30;46.70;;;45.51;16.86;100833.56;5032570;28;20652;-71
2022/07/30 07:20:33;;;;;;;5.20;4.80;;;39.60;46.20;;;46.16;16.62;100834.66;5030670;28;20698;-71
2022/07/30 07:23:00;;;;;;;5.40;5.03;;;39.90;45.50;;;46.36;16.02;100836.56;5032106;28;20747;-72
2022/07/30 07:25:35;;;;;;;4.80;4.50;;;40.20;45.10;;;45.21;16.62;100829.28;5015351;28;20747;-71
2022/07/30 07:28:03;;;;;;;4.77;4.57;;;39.80;45.00;;;44.88;17.46;100831.09;5045295;28;20775;-71
2022/07/30 07:30:43;;;;;;;5.63;5.23;;;39.50;45.40;;;45.90;16.24;100829.41;5051377;28;20622;-71
2022/07/30 07:33:11;;;;;;;5.90;5.30;;;39.80;45.30;;;46.63;16.06;100833.91;5040340;28;20620;-72
2022/07/30 07:35:38;;;;;;;5.73;5.33;;;40.20;45.00;;;47.12;15.77;100831.91;5032057;28;20655;-72
2022/07/30 07:38:18;;;;;;;5.90;5.50;;;40.60;44.40;;;46.06;16.37;100827.66;5031020;28;20627;-69
2022/07/30 07:40:46;;;;;;;6.83;4.93;;;40.10;44.30;;;44.54;17.54;100821.91;5024432;28;20671;-70
2022/07/30 07:43:13;;;;;;;5.63;5.07;;;39.50;45.10;;;43.47;18.48;100825.88;5028862;28;20965;-70
2022/07/30 07:45:44;;;;;;;4.70;4.10;;;38.90;45.00;;;41.98;20.02;100824.47;5029900;28;20653;-71
2022/07/30 07:48:11;;;;;;;5.00;4.70;;;38.10;45.60;;;40.24;21.43;100821.47;5031715;28;20707;-71
2022/07/30 07:50:39;;;;;;;5.10;4.40;;;36.60;46.80;;;39.64;22.13;100819.78;5017319;28;20624;-71
2022/07/30 07:53:06;;;;;;;4.70;4.30;;;36.40;47.30;;;41.11;20.89;100822.16;5012718;28;20990;-71
2022/07/30 07:55:33;;;;;;;5.07;4.67;;;36.80;47.50;;;41.59;20.18;100825.97;5031007;28;20681;-71
2022/07/30 07:58:00;;;;;;;7.13;4.80;;;37.20;46.80;;;39.87;22.15;100814.19;5013438;28;20609;-71
2022/07/30 08:00:28;;;;;;;6.90;4.97;;;36.60;47.10;;;37.47;25.10;100816.78;5030190;28;20645;-71
2022/07/30 08:02:55;;;;;;;5.37;4.97;;;35.10;49.00;;;33.81;30.21;100799.84;5031122;28;20627;-72
2022/07/30 08:05:22;;;;;;;5.87;4.97;;;32.50;52.10;;;35.27;28.04;100805.28;5030887;28;20755;-69
2022/07/30 08:07:49;;;;;;;7.03;4.70;;;32.40;53.00;;;36.92;26.20;100808.94;5031653;28;20683;-70
2022/07/30 08:10:16;;;;;;;5.67;4.07;;;33.10;52.40;;;38.26;24.03;100813.66;5030275;28;20727;-71
2022/07/30 08:12:43;;;;;;;6.00;4.47;;;34.00;51.50;;;38.86;23.69;100814.88;5028691;28;20633;-70
2022/07/30 08:15:10;;;;;;;5.07;4.60;;;34.60;50.60;;;36.75;26.17;100813.88;5028565;28;21289;-71
2022/07/30 08:17:42;;;;;;;6.60;3.97;;;33.60;51.20;;;39.21;23.51;100828.06;5028885;28;20979;-69
2022/07/30 08:20:12;;;;;;;4.90;4.50;;;34.60;50.90;;;40.70;21.82;100824.16;5029222;28;20668;-71
2022/07/30 08:22:40;;;;;;;4.60;4.30;;;35.50;49.60;;;42.14;20.83;100821.03;5014528;28;20609;-72
2022/07/30 08:25:07;;;;;;;7.57;4.87;;;36.50;48.90;;;44.43;18.13;100830.84;5029734;28;21092;-68
2022/07/30 08:27:35;;;;;;;5.03;4.63;;;37.80;47.20;;;46.26;16.64;100832.25;5022942;28;20691;-71
2022/07/30 08:30:05;;;;;;;5.77;5.10;;;39.10;46.10;;;46.68;15.69;100828.19;5028772;28;20647;-72
2022/07/30 08:32:33;;;;;;;4.80;4.40;;;39.90;44.70;;;46.13;16.14;100822.38;5017991;28;21181;-71
2022/07/30 08:35:00;;;;;;;4.33;4.03;;;39.70;44.30;;;46.41;16.11;100823.31;5026155;28;20647;-69
2022/07/30 08:37:27;;;;;;;3.87;3.57;;;40.20;43.90;;;45.72;16.54;100825.25;5030794;28;20620;-69
2022/07/30 08:39:54;;;;;;;4.40;4.00;;;40.10;43.90;;;43.19;18.21;100808.13;5025939;28;20620;-71
2022/07/30 08:42:22;;;;;;;3.60;3.40;;;39.30;43.50;;;42.67;19.07;100811.88;5009184;28;20633;-74
2022/07/30 08:44:53;;;;;;;3.60;3.40;;;38.40;44.40;;;43.64;18.14;100814.91;5012674;28;20632;-69
2022/07/30 08:47:32;;;;;;;3.67;3.40;;;38.30;44.80;;;45.07;16.82;100812.97;5030576;28;20637;-68
2022/07/30 08:50:03;;;;;;;3.60;3.30;;;39.10;44.10;;;45.91;16.17;100825.53;5027451;28;20627;-69
2022/07/30 08:52:32;;;;;;;4.03;3.77;;;39.70;43.90;;;47.23;15.55;100819.19;5011979;28;20628;-72
2022/07/30 08:54:59;;;;;;;3.63;3.43;;;40.40;43.30;;;49.19;14.10;100824.59;5004258;28;21166;-70
2022/07/30 08:57:31;;;;;;;4.93;4.57;;;41.70;42.70;;;51.00;12.39;100813.44;5012637;28;20601;-68
2022/07/30 08:59:59;;;;;;;10.33;9.37;;;42.90;41.70;;;48.65;13.92;100815.44;5006929;28;21213;-67
2022/07/30 09:02:30;;;;;;;4.03;3.73;;;42.10;41.00;;;48.66;13.93;100815.09;5027729;28;20711;-71
2022/07/30 09:04:57;;;;;;;3.17;3.07;;;42.20;41.30;;;49.82;13.41;100813.13;5023742;28;21301;-71
2022/07/30 09:07:24;;;;;;;2.97;2.87;;;42.60;40.70;;;50.12;12.78;100809.31;5029425;28;21262;-72
2022/07/30 09:09:51;;;;;;;3.30;3.20;;;43.30;39.50;;;49.78;12.79;100817.78;5023979;28;20621;-72
2022/07/30 09:12:44;;;;;;;3.90;2.90;;;42.80;39.40;;;51.56;11.79;100815.31;5029741;28;20595;-72
2022/07/30 09:15:16;;;;;;;2.90;2.80;;;43.90;39.00;;;53.23;10.30;100816.94;5028878;28;20669;-72
2022/07/30 09:17:48;;;;;;;3.43;3.20;;;45.00;38.30;;;51.92;11.22;100808.13;5030016;28;20631;-72
2022/07/30 09:20:16;;;;;;;3.30;3.00;;;45.20;37.70;;;49.55;12.51;100815.81;5024013;28;20640;-70
2022/07/30 09:22:52;;;;;;;3.20;3.00;;;43.80;38.10;;;48.03;13.50;100805.19;5028426;28;20623;-69
2022/07/30 09:25:44;;;;;;;3.70;3.30;;;43.10;38.30;;;46.64;14.67;100799.59;5009932;28;20686;-72
2022/07/30 09:28:13;;;;;;;3.07;2.87;;;41.80;39.30;;;48.74;12.97;100805.75;5029375;28;20655;-71
2022/07/30 09:30:54;;;;;;;3.43;3.27;;;42.40;38.80;;;45.11;15.65;100807.63;5028374;28;20613;-71
2022/07/30 09:33:43;;;;;;;2.90;2.80;;;41.30;39.10;;;46.66;15.09;100800.13;5026960;28;21256;-70
2022/07/30 09:36:17;;;;;;;4.13;3.83;;;41.00;39.80;;;46.71;14.59;100794.34;5023108;28;20620;-72
2022/07/30 09:38:53;;;;;;;3.80;3.60;;;41.40;39.30;;;43.05;17.95;100791.78;5025413;28;20663;-69
2022/07/30 09:41:37;;;;;;;3.80;3.70;;;39.50;40.60;;;39.09;21.12;100786.72;5029722;28;21250;-69
2022/07/30 09:44:06;;;;;;;4.33;4.13;;;37.20;42.20;;;36.81;23.66;100788.28;5028558;28;21245;-71
2022/07/30 09:46:50;;;;;;;3.50;3.30;;;35.20;44.80;;;35.96;24.38;100784.72;5027169;28;20651;-72
2022/07/30 09:49:29;;;;;;;3.40;3.17;;;33.90;45.40;;;38.19;22.58;100785.09;5009768;28;20731;-72
2022/07/30 09:51:56;;;;;;;4.63;4.33;;;34.30;45.60;;;37.02;23.25;100787.09;5027229;28;20995;-70
2022/07/30 09:54:44;;;;;;;3.30;3.20;;;33.90;45.80;;;38.08;22.41;100789.84;5020733;28;20637;-69
2022/07/30 09:57:31;;;;;;;2.83;2.73;;;34.00;46.30;;;42.70;18.03;100792.06;5015039;28;20628;-68
2022/07/30 10:00:20;;;;;;;8.97;4.10;;;36.40;44.50;;;46.88;14.24;100803.53;5030375;28;20735;-70
2022/07/30 10:02:51;;;;;;;4.00;3.80;;;39.00;42.30;;;49.44;13.06;100803.69;5029592;28;20659;-70
2022/07/30 10:05:19;;;;;;;4.00;3.03;;;40.80;40.70;;;51.01;12.29;100803.91;5026096;28;21223;-70
2022/07/30 10:07:56;;;;;;;3.43;3.13;;;42.20;39.80;;;52.26;11.25;100804.84;5031504;28;21214;-71
2022/07/30 10:10:27;;;;;;;3.13;2.93;;;43.50;38.90;;;51.12;12.01;100798.47;5033358;28;20605;-70
2022/07/30 10:12:59;;;;;;;3.07;2.97;;;43.70;38.20;;;50.13;12.18;100790.69;5033937;28;20616;-71
2022/07/30 10:15:34;;;;;;;4.03;3.23;;;43.20;38.20;;;50.30;12.23;100787.41;5013106;28;20653;-72
2022/07/30 10:18:05;;;;;;;2.90;2.73;;;42.90;38.30;;;50.42;12.33;100787.19;5033607;28;20605;-70
2022/07/30 10:20:34;;;;;;;4.47;4.17;;;43.30;38.20;;;48.23;13.57;100782.00;5028576;28;20612;-64
2022/07/30 10:23:01;;;;;;;5.83;5.33;;;42.20;38.40;;;48.09;13.07;100782.47;5015140;28;20656;-66
2022/07/30 10:25:48;;;;;;;3.47;3.23;;;42.00;38.70;;;46.99;14.10;100782.50;5018643;28;20604;-70
2022/07/30 10:28:23;;;;;;;3.00;2.93;;;41.70;39.00;;;44.66;15.84;100777.16;5032868;28;20664;-66